KRNO

Reno / Tahoe International Airport

Reno, Nevada, USA
KRNO 221126Z 2212/2312 VRB04KT P6SM FEW110 SCT200 FM222200 14004KT P6SM FEW110 SCT200 FM230200 VRB03KT P6SM SCT110 SCT200
Issued Valid From Valid To
Jan-22 @ 11:26 UTC
(6 hours ago)
Jan-22 @ 12:00 UTC
(5 hours ago)
Jan-23 @ 12:00 UTC
(in 19 hours)
Jan-22 @ 12:00 to Jan-22 @ 22:00
KRNO 221126Z 2212/2312 VRB04KT P6SM FEW110 SCT200
Wind Visibility Clouds
Variable at 4 knots Greater than 6 miles
  • Few at 11,000' AGL
  • Scattered at 20,000' AGL
From Jan-22 @ 22:00 to Jan-23 @ 02:00
FM222200 14004KT P6SM FEW110 SCT200
Wind Visibility Clouds
140° at 4 knots Greater than 6 miles
  • Few at 11,000' AGL
  • Scattered at 20,000' AGL
From Jan-23 @ 02:00 to Jan-23 @ 12:00
FM230200 VRB03KT P6SM SCT110 SCT200
Wind Visibility Clouds
Variable at 3 knots Greater than 6 miles
  • Scattered at 11,000' AGL
  • Scattered at 20,000' AGL
KRNO 221126Z 2212/2312 VRB04KT P6SM FEW110 SCT200 FM222200 14004KT P6SM FEW110 SCT200 FM230200 VRB03KT P6SM SCT110 SCT200
Issued Jan-22 @ 11:26 UTC
(6 hours ago)
Valid From Jan-22 @ 12:00 UTC
(5 hours ago)
Valid To Jan-23 @ 12:00 UTC
(in 19 hours)
Jan-22 @ 12:00 - Jan-22 @ 22:00
Wind Visibility
Variable at 4 knots Greater than 6 miles
Clouds
  • Few at 11,000' AGL
  • Scattered at 20,000' AGL
From Jan-22 @ 22:00 - Jan-23 @ 02:00
Wind Visibility
140° at 4 knots Greater than 6 miles
Clouds
  • Few at 11,000' AGL
  • Scattered at 20,000' AGL
From Jan-23 @ 02:00 - Jan-23 @ 12:00
Wind Visibility
Variable at 3 knots Greater than 6 miles
Clouds
  • Scattered at 11,000' AGL
  • Scattered at 20,000' AGL